Terminal Aerodrome Forecast
Issued by NWS Wilmington, OH

Current Version | Previous Version | Graphics & Text | Print | Product List | Glossary On
Versions: 1 2 3 4 5 6 7 8 9 10 11 12 13 14 15 16
000
FTUS41 KILN 301600 AAB
TAFDAY
TAF AMD
KDAY 301653Z 3017/3112 27010KT P6SM VCTS BKN040CB
     FM302100 27008KT P6SM SCT040 SCT080
     FM310000 23003KT P6SM SCT040=

USA.gov is the U.S. government's official web portal to all federal, state and local government web resources and services.